Mogadore, Ohio
Current Conditions -  °F | °C
As of 7:54 AM on Friday 31 Oct 2014 (Local Time) from KAKR Reporting Station
Overcast Overcast  
Wind Chill: 42°   Ceiling: 4400
Heat Index: 45°   Visibility: 10mi
Dew Point: 37°   Wind: 6mph
Humidity: 74%   Direction: 190°S
Pressure: 29.94"   Gusts: NA
Location:  41.05°N, 81.4°W
Report Text: KAKR 311154Z AUTO 19005KT 10SM OVC044 07/03 A2994 RMK AO2 SLP141 70001 T00720028 10072 20067 58009
Loading
Personal Weather Stations






























Interactive Weather Map
Tropical Storm Tracking
New forecast layout! Learn more

10-Day Weather Forecast

Advertisements
Track Severe Weather on mobile